createdAt,value
2023-06-29T00:01:34.801Z,89.80
2023-06-29T00:04:01.890Z,90.20
2023-06-29T00:06:28.865Z,89.50
2023-06-29T00:08:55.837Z,89.80
2023-06-29T00:11:23.588Z,89.80
2023-06-29T00:13:50.581Z,89.90
2023-06-29T00:16:18.429Z,89.70
2023-06-29T00:18:45.899Z,89.90
2023-06-29T00:21:13.898Z,90.10
2023-06-29T00:23:40.925Z,89.50
2023-06-29T00:26:07.680Z,89.40
2023-06-29T00:28:34.614Z,89.10
2023-06-29T00:31:01.528Z,88.90
2023-06-29T00:33:28.417Z,88.90
2023-06-29T00:35:55.220Z,89.70
2023-06-29T00:38:22.017Z,89.60
2023-06-29T00:40:49.838Z,89.40
2023-06-29T00:43:16.787Z,89.40
2023-06-29T00:45:43.750Z,89.80
2023-06-29T00:48:10.988Z,89.50
2023-06-29T00:50:38.062Z,90.20
2023-06-29T00:53:04.967Z,89.70
2023-06-29T00:55:31.797Z,90.00
2023-06-29T00:57:58.786Z,90.00
2023-06-29T01:00:25.601Z,90.10
2023-06-29T01:02:52.540Z,90.10
2023-06-29T01:05:19.521Z,90.70
2023-06-29T01:07:52.278Z,90.00
2023-06-29T01:10:20.866Z,90.20
2023-06-29T01:12:48.585Z,90.20
2023-06-29T01:15:16.145Z,90.00
2023-06-29T01:17:44.108Z,89.70
2023-06-29T01:20:12.518Z,90.00
2023-06-29T01:22:42.983Z,90.10
2023-06-29T01:25:10.067Z,89.60
2023-06-29T01:27:37.460Z,90.00
2023-06-29T01:30:05.447Z,90.10
2023-06-29T01:32:38.576Z,89.90
2023-06-29T01:35:06.304Z,90.30
2023-06-29T01:37:46.336Z,90.00
2023-06-29T01:40:15.481Z,89.60
2023-06-29T01:42:43.376Z,90.00
2023-06-29T01:45:11.189Z,89.10
2023-06-29T01:47:38.878Z,90.10
2023-06-29T01:50:05.864Z,90.00
2023-06-29T01:52:32.799Z,88.70
2023-06-29T01:54:59.700Z,88.80
2023-06-29T01:57:26.544Z,89.40
2023-06-29T01:59:53.621Z,89.70
2023-06-29T02:02:20.515Z,89.00
2023-06-29T02:04:47.405Z,89.30
2023-06-29T02:07:14.522Z,89.10
2023-06-29T02:09:41.514Z,89.20
2023-06-29T02:12:17.418Z,90.20
2023-06-29T02:14:44.389Z,89.10
2023-06-29T02:17:11.365Z,90.00
2023-06-29T02:19:38.180Z,89.90
2023-06-29T02:22:05.157Z,89.60
2023-06-29T02:24:32.765Z,89.80
2023-06-29T02:26:59.782Z,89.90
2023-06-29T02:29:26.678Z,89.50
2023-06-29T02:31:53.781Z,89.50
2023-06-29T02:34:20.680Z,90.00
2023-06-29T02:36:47.496Z,90.20
2023-06-29T02:39:14.398Z,89.00
2023-06-29T02:41:41.329Z,89.10
2023-06-29T02:44:08.414Z,90.00
2023-06-29T02:46:35.284Z,89.50
2023-06-29T02:49:02.217Z,90.10
2023-06-29T02:51:29.043Z,90.50
2023-06-29T02:53:55.998Z,90.00
2023-06-29T02:56:23.012Z,89.80
2023-06-29T02:58:49.857Z,89.90
2023-06-29T03:01:16.684Z,90.20
2023-06-29T03:03:43.708Z,90.10
2023-06-29T03:06:10.903Z,89.90
2023-06-29T03:08:37.754Z,90.00
2023-06-29T03:11:04.735Z,89.90
2023-06-29T03:13:31.786Z,90.30
2023-06-29T03:16:02.130Z,90.20
2023-06-29T03:18:29.045Z,89.80
2023-06-29T03:20:55.948Z,89.10
2023-06-29T03:23:22.935Z,89.30
2023-06-29T03:25:49.844Z,89.50
2023-06-29T03:28:16.839Z,89.10
2023-06-29T03:30:43.676Z,88.20
2023-06-29T03:33:10.779Z,89.50
2023-06-29T03:35:37.575Z,88.60
2023-06-29T03:38:08.539Z,89.40
2023-06-29T03:40:35.873Z,88.90
2023-06-29T03:43:03.358Z,89.50
2023-06-29T03:45:31.882Z,89.30
2023-06-29T03:48:01.558Z,89.10
2023-06-29T03:50:28.418Z,89.40
2023-06-29T03:52:55.226Z,89.30
2023-06-29T03:55:22.079Z,89.00
2023-06-29T03:57:50.154Z,89.20
2023-06-29T04:00:17.117Z,88.90
2023-06-29T04:02:44.077Z,89.70
2023-06-29T04:05:10.935Z,89.50
2023-06-29T04:07:37.953Z,88.10
2023-06-29T04:10:04.968Z,89.20
2023-06-29T04:12:31.828Z,89.50
2023-06-29T04:14:58.778Z,89.10
2023-06-29T04:17:25.704Z,88.70
2023-06-29T04:19:52.611Z,88.60
2023-06-29T04:22:19.453Z,89.40
2023-06-29T04:24:46.630Z,88.90
2023-06-29T04:27:13.602Z,89.00
2023-06-29T04:29:42.122Z,88.40
2023-06-29T04:32:09.201Z,89.20
2023-06-29T04:34:36.166Z,87.60
2023-06-29T04:37:03.452Z,88.40
2023-06-29T04:39:30.482Z,88.80
2023-06-29T04:42:02.832Z,88.90
2023-06-29T04:44:33.640Z,89.50
2023-06-29T04:47:04.583Z,90.00
2023-06-29T04:49:38.006Z,90.00
2023-06-29T04:52:05.554Z,90.50
2023-06-29T04:54:32.789Z,89.50
2023-06-29T04:57:00.827Z,90.00
2023-06-29T04:59:31.432Z,89.20
2023-06-29T05:01:58.276Z,89.40
2023-06-29T05:04:25.136Z,90.10
2023-06-29T05:06:51.974Z,88.50
2023-06-29T05:09:18.927Z,89.30
2023-06-29T05:11:45.823Z,89.00
2023-06-29T05:14:12.688Z,90.00
2023-06-29T05:16:39.558Z,89.70
2023-06-29T05:19:06.687Z,88.50
2023-06-29T05:21:35.392Z,88.70
2023-06-29T05:24:02.169Z,89.20
2023-06-29T05:26:29.082Z,88.80
2023-06-29T05:29:05.231Z,89.00
2023-06-29T05:31:34.310Z,88.80
2023-06-29T05:34:01.289Z,88.80
2023-06-29T05:36:28.197Z,88.00
2023-06-29T05:38:55.011Z,87.50
2023-06-29T05:41:22.003Z,87.60
2023-06-29T05:43:48.807Z,88.70
2023-06-29T05:46:18.414Z,89.10
2023-06-29T05:48:45.315Z,88.50
2023-06-29T05:51:12.250Z,87.40
2023-06-29T05:53:39.252Z,88.10
2023-06-29T05:56:06.078Z,88.70
2023-06-29T05:58:32.888Z,89.50
2023-06-29T06:00:59.723Z,88.40
2023-06-29T06:03:27.180Z,88.90
2023-06-29T06:05:54.091Z,88.50
2023-06-29T06:08:20.997Z,87.90
2023-06-29T06:10:47.855Z,89.60
2023-06-29T06:13:14.689Z,87.00
2023-06-29T06:15:42.583Z,87.30
2023-06-29T06:18:09.637Z,87.40
2023-06-29T06:20:36.566Z,87.10
2023-06-29T06:23:03.420Z,88.10
2023-06-29T06:25:30.291Z,87.90
2023-06-29T06:27:57.392Z,87.30
2023-06-29T06:30:24.930Z,89.20
2023-06-29T06:32:51.946Z,87.30
2023-06-29T06:35:19.262Z,88.60
2023-06-29T06:37:46.512Z,89.20
2023-06-29T06:40:13.504Z,88.30
2023-06-29T06:42:40.508Z,88.70
2023-06-29T06:45:07.952Z,88.70
2023-06-29T06:47:35.687Z,88.60
2023-06-29T06:50:02.902Z,87.10
2023-06-29T06:52:29.866Z,87.10
2023-06-29T06:55:00.440Z,87.70
2023-06-29T06:57:27.308Z,87.30
2023-06-29T06:59:54.156Z,86.90
2023-06-29T07:02:22.452Z,85.70
2023-06-29T07:04:49.526Z,85.20
2023-06-29T07:07:16.537Z,85.30
2023-06-29T07:09:43.541Z,85.70
2023-06-29T07:12:11.078Z,86.50
2023-06-29T07:14:38.420Z,86.10
2023-06-29T07:17:05.523Z,86.10
2023-06-29T07:24:31.736Z,84.00
2023-06-29T07:26:58.510Z,82.90
2023-06-29T07:29:25.335Z,83.10
2023-06-29T07:31:52.105Z,83.50
2023-06-29T07:34:23.964Z,83.40
2023-06-29T07:36:51.013Z,82.80
2023-06-29T07:39:18.107Z,82.60
2023-06-29T07:41:44.926Z,82.80
2023-06-29T07:44:11.727Z,82.50
2023-06-29T07:46:38.603Z,81.20
2023-06-29T07:49:05.385Z,80.80
2023-06-29T07:51:34.584Z,80.40
2023-06-29T07:54:05.546Z,79.40
2023-06-29T07:59:02.718Z,81.20
2023-06-29T08:01:29.970Z,78.10
2023-06-29T08:04:02.998Z,78.10
2023-06-29T08:09:03.322Z,77.20
2023-06-29T08:11:30.652Z,77.40
2023-06-29T08:13:57.769Z,76.70
2023-06-29T08:16:24.662Z,77.30
2023-06-29T08:18:51.540Z,77.70
2023-06-29T08:21:18.445Z,75.30
2023-06-29T08:23:47.810Z,75.20
2023-06-29T08:26:14.785Z,74.50
2023-06-29T08:28:41.605Z,73.40
2023-06-29T08:31:08.773Z,74.00
2023-06-29T08:33:35.983Z,74.50
2023-06-29T08:36:03.088Z,72.90
2023-06-29T08:38:29.983Z,72.70
2023-06-29T08:40:59.157Z,73.80
2023-06-29T08:43:26.062Z,74.70
2023-06-29T08:45:53.057Z,74.60
2023-06-29T08:48:20.828Z,75.50
2023-06-29T08:50:55.949Z,69.20
2023-06-29T08:53:23.154Z,70.20
2023-06-29T08:55:50.281Z,68.70
2023-06-29T08:58:17.329Z,70.50
2023-06-29T09:00:44.846Z,71.70
2023-06-29T09:03:12.947Z,71.30
2023-06-29T09:05:39.952Z,72.60
2023-06-29T09:08:07.537Z,73.60
2023-06-29T09:10:34.865Z,72.60
2023-06-29T09:13:04.063Z,72.10
2023-06-29T09:15:31.100Z,71.40
2023-06-29T09:17:58.016Z,71.70
2023-06-29T09:20:26.457Z,73.70
2023-06-29T09:22:53.359Z,72.30
2023-06-29T09:25:33.041Z,72.50
2023-06-29T09:28:02.860Z,73.10
2023-06-29T09:30:34.666Z,73.50
2023-06-29T09:33:08.819Z,72.40
2023-06-29T09:35:36.252Z,71.80
2023-06-29T09:38:04.114Z,69.80
2023-06-29T09:40:31.320Z,68.80
2023-06-29T09:42:58.590Z,70.20
2023-06-29T09:45:28.251Z,69.30
2023-06-29T09:50:25.700Z,67.70
2023-06-29T09:52:55.459Z,68.30
2023-06-29T09:55:31.610Z,67.60
2023-06-29T09:57:58.661Z,66.30
2023-06-29T10:00:26.640Z,66.10
2023-06-29T10:02:54.163Z,66.10
2023-06-29T10:05:21.690Z,65.10
2023-06-29T10:07:48.638Z,66.10
2023-06-29T10:10:16.179Z,66.60
2023-06-29T10:12:43.001Z,67.30
2023-06-29T10:15:11.008Z,65.90
2023-06-29T10:17:41.416Z,68.70
2023-06-29T10:20:09.555Z,65.50
2023-06-29T10:22:37.887Z,66.10
2023-06-29T10:25:07.992Z,65.20
2023-06-29T10:27:35.172Z,64.70
2023-06-29T10:30:05.680Z,63.80
2023-06-29T10:32:41.637Z,64.50
2023-06-29T10:35:13.282Z,66.40
2023-06-29T10:37:44.594Z,65.60
2023-06-29T10:40:22.626Z,65.70
2023-06-29T10:42:53.618Z,65.80
2023-06-29T10:45:21.276Z,67.10
2023-06-29T10:47:56.974Z,65.50
2023-06-29T10:50:26.365Z,65.70
2023-06-29T10:52:56.824Z,66.70
2023-06-29T10:55:24.355Z,64.20
2023-06-29T10:57:59.589Z,63.10
2023-06-29T11:00:26.824Z,63.80
2023-06-29T11:02:54.417Z,65.90
2023-06-29T11:05:22.158Z,65.30
2023-06-29T11:07:52.770Z,65.40
2023-06-29T11:10:21.301Z,66.60
2023-06-29T11:12:49.579Z,64.60
2023-06-29T11:18:06.229Z,67.70
2023-06-29T11:20:34.919Z,66.60
2023-06-29T11:23:02.144Z,66.00
2023-06-29T11:25:30.499Z,68.20
2023-06-29T11:27:58.213Z,66.70
2023-06-29T11:30:25.248Z,64.90
2023-06-29T11:32:52.791Z,65.20
2023-06-29T11:35:24.153Z,65.90
2023-06-29T11:37:52.198Z,65.30
2023-06-29T11:40:20.520Z,66.90
2023-06-29T11:42:47.994Z,68.20
2023-06-29T11:45:15.303Z,66.60
2023-06-29T11:47:43.232Z,65.50
2023-06-29T11:50:11.403Z,65.10
2023-06-29T11:52:39.723Z,63.80
2023-06-29T11:55:07.629Z,65.30
2023-06-29T11:57:36.237Z,67.80
2023-06-29T12:00:04.173Z,67.10
2023-06-29T12:02:31.061Z,65.40
2023-06-29T12:04:58.765Z,65.10
2023-06-29T12:07:38.833Z,66.10
2023-06-29T12:10:09.422Z,66.70
2023-06-29T12:12:46.786Z,65.60
2023-06-29T12:15:13.688Z,64.30
2023-06-29T12:20:15.525Z,64.40
2023-06-29T12:22:43.312Z,64.10
2023-06-29T12:25:11.612Z,63.50
2023-06-29T12:27:38.852Z,64.00
2023-06-29T12:30:06.023Z,65.20
2023-06-29T12:32:32.855Z,64.10
2023-06-29T12:34:59.689Z,64.80
2023-06-29T12:37:26.517Z,64.30
2023-06-29T12:39:55.424Z,64.20
2023-06-29T12:42:25.384Z,63.70
2023-06-29T12:44:52.232Z,64.30
2023-06-29T12:47:19.692Z,66.20
2023-06-29T12:49:47.386Z,66.60
2023-06-29T12:52:17.626Z,63.00
2023-06-29T12:54:44.500Z,63.80
2023-06-29T12:57:13.538Z,62.20
2023-06-29T12:59:43.422Z,64.00
2023-06-29T13:02:11.147Z,62.30
2023-06-29T13:04:40.810Z,61.80
2023-06-29T13:07:08.163Z,62.60
2023-06-29T13:09:38.112Z,63.50
2023-06-29T13:12:07.894Z,65.20
2023-06-29T13:14:34.731Z,61.60
2023-06-29T13:17:01.843Z,62.90
2023-06-29T13:19:28.929Z,61.80
2023-06-29T13:21:55.969Z,62.70
2023-06-29T13:24:23.408Z,62.00
2023-06-29T13:26:51.308Z,61.80
2023-06-29T13:29:20.674Z,64.40
2023-06-29T13:31:48.325Z,63.80
2023-06-29T13:34:15.389Z,63.90
2023-06-29T13:36:42.331Z,64.20
2023-06-29T13:39:09.298Z,61.30
2023-06-29T13:41:37.150Z,62.40
2023-06-29T13:44:08.904Z,64.00
2023-06-29T13:46:36.391Z,64.10
2023-06-29T13:49:04.182Z,63.50
2023-06-29T13:51:31.889Z,64.40
2023-06-29T13:53:59.371Z,63.00
2023-06-29T13:56:26.320Z,63.20
2023-06-29T13:58:53.218Z,63.20
2023-06-29T14:01:20.750Z,62.10
2023-06-29T14:03:48.083Z,65.80
2023-06-29T14:06:19.565Z,65.20
2023-06-29T14:08:47.274Z,63.70
2023-06-29T14:11:14.128Z,63.00
2023-06-29T14:13:41.041Z,62.40
2023-06-29T14:16:07.902Z,62.00
2023-06-29T14:18:34.832Z,63.80
2023-06-29T14:21:01.791Z,63.50
2023-06-29T14:23:28.716Z,62.90
2023-06-29T14:25:55.671Z,62.20
2023-06-29T14:28:22.519Z,62.40
2023-06-29T14:30:49.347Z,62.90
2023-06-29T14:33:28.296Z,64.80
2023-06-29T14:35:59.014Z,63.50
2023-06-29T14:38:25.978Z,64.80
2023-06-29T14:40:55.345Z,64.20
2023-06-29T14:43:22.328Z,63.60
2023-06-29T14:45:49.548Z,63.40
2023-06-29T14:48:21.920Z,64.30
2023-06-29T14:50:50.330Z,63.60
2023-06-29T14:53:17.280Z,65.50
2023-06-29T14:55:45.145Z,63.60
2023-06-29T14:58:12.900Z,64.20
2023-06-29T15:00:39.824Z,65.50
2023-06-29T15:03:06.843Z,66.80
2023-06-29T15:05:33.710Z,64.00
2023-06-29T15:08:01.257Z,64.50
2023-06-29T15:10:28.223Z,68.00
2023-06-29T15:12:55.221Z,72.30
2023-06-29T15:15:23.609Z,66.50
2023-06-29T15:17:51.645Z,65.20
2023-06-29T15:20:19.199Z,64.70
2023-06-29T15:22:46.369Z,64.60
2023-06-29T15:25:13.735Z,64.90
2023-06-29T15:27:40.911Z,66.90
2023-06-29T15:30:08.555Z,64.80
2023-06-29T15:32:35.931Z,68.10
2023-06-29T15:35:03.966Z,65.10
2023-06-29T15:37:31.515Z,65.40
2023-06-29T15:39:58.335Z,64.70
2023-06-29T15:42:25.171Z,66.30
2023-06-29T15:44:52.112Z,64.40
2023-06-29T15:47:19.029Z,64.10
2023-06-29T15:49:45.934Z,65.40
2023-06-29T15:52:12.922Z,67.00
2023-06-29T15:54:40.428Z,65.30
2023-06-29T15:57:07.301Z,66.70
2023-06-29T15:59:34.198Z,66.20
2023-06-29T16:02:01.188Z,65.90
2023-06-29T16:04:28.076Z,66.90
2023-06-29T16:06:55.019Z,68.90
2023-06-29T16:09:21.894Z,68.40
2023-06-29T16:11:48.688Z,66.00
2023-06-29T16:14:15.747Z,65.70
2023-06-29T16:16:42.645Z,64.90
2023-06-29T16:19:10.880Z,64.80
2023-06-29T16:21:37.855Z,64.60
2023-06-29T16:24:04.957Z,69.80
2023-06-29T16:26:31.846Z,66.40
2023-06-29T16:28:58.811Z,65.40
2023-06-29T16:31:25.799Z,69.20
2023-06-29T16:33:52.838Z,65.80
2023-06-29T16:36:19.881Z,65.60
2023-06-29T16:38:46.846Z,66.40
2023-06-29T16:41:13.749Z,68.00
2023-06-29T16:43:40.783Z,67.50
2023-06-29T16:46:07.720Z,68.60
2023-06-29T16:48:34.718Z,65.80
2023-06-29T16:51:01.892Z,70.40
2023-06-29T16:53:28.879Z,72.40
2023-06-29T16:55:57.133Z,73.50
2023-06-29T16:58:27.707Z,74.60
2023-06-29T17:00:54.678Z,71.20
2023-06-29T17:03:22.248Z,75.90
2023-06-29T17:05:49.213Z,75.20
2023-06-29T17:08:16.060Z,74.10
2023-06-29T17:10:42.959Z,75.20
2023-06-29T17:13:09.819Z,75.50
2023-06-29T17:15:37.421Z,74.60
2023-06-29T17:18:04.299Z,76.00
2023-06-29T17:20:31.204Z,74.80
2023-06-29T17:22:58.039Z,75.60
2023-06-29T17:25:24.878Z,76.30
2023-06-29T17:27:51.723Z,77.10
2023-06-29T17:30:18.525Z,75.90
2023-06-29T17:32:45.419Z,76.00
2023-06-29T17:35:12.342Z,75.70
2023-06-29T17:37:39.206Z,75.70
2023-06-29T17:40:06.513Z,76.90
2023-06-29T17:42:33.487Z,75.80
2023-06-29T17:45:00.430Z,76.80
2023-06-29T17:47:27.371Z,76.50
2023-06-29T17:49:54.332Z,76.20
2023-06-29T17:52:21.173Z,77.00
2023-06-29T17:54:49.818Z,76.60
2023-06-29T17:57:16.764Z,77.50
2023-06-29T17:59:43.604Z,77.20
2023-06-29T18:02:10.607Z,77.40
2023-06-29T18:04:37.928Z,77.90
2023-06-29T18:07:05.260Z,80.10
2023-06-29T18:09:32.133Z,78.30
2023-06-29T18:11:58.964Z,78.50
2023-06-29T18:14:26.225Z,82.10
2023-06-29T18:16:53.104Z,80.50
2023-06-29T18:19:22.670Z,80.10
2023-06-29T18:21:49.555Z,80.10
2023-06-29T18:24:16.552Z,80.00
2023-06-29T18:26:43.574Z,80.00
2023-06-29T18:29:10.447Z,80.50
2023-06-29T18:31:37.965Z,79.80
2023-06-29T18:34:05.938Z,80.10
2023-06-29T18:36:34.034Z,80.40
2023-06-29T18:39:00.996Z,81.30
2023-06-29T18:41:32.318Z,81.70
2023-06-29T18:44:00.077Z,80.00
2023-06-29T18:46:27.559Z,82.50
2023-06-29T18:48:55.123Z,81.50
2023-06-29T18:51:22.396Z,80.30
2023-06-29T18:53:50.651Z,81.60
2023-06-29T18:56:18.147Z,80.70
2023-06-29T18:58:44.954Z,82.10
2023-06-29T19:01:11.817Z,82.10
2023-06-29T19:03:38.872Z,83.10
2023-06-29T19:06:05.963Z,82.10
2023-06-29T19:08:32.893Z,82.80
2023-06-29T19:10:59.852Z,81.70
2023-06-29T19:13:29.623Z,81.80
2023-06-29T19:15:56.794Z,81.40
2023-06-29T19:18:24.124Z,83.10
2023-06-29T19:20:51.509Z,82.60
2023-06-29T19:23:18.421Z,82.10
2023-06-29T19:25:45.575Z,82.90
2023-06-29T19:28:12.659Z,81.80
2023-06-29T19:30:39.609Z,83.10
2023-06-29T19:33:06.586Z,83.20
2023-06-29T19:35:33.485Z,82.90
2023-06-29T19:38:00.415Z,83.80
2023-06-29T19:40:27.857Z,82.00
2023-06-29T19:42:56.282Z,81.80
2023-06-29T19:45:23.801Z,82.10
2023-06-29T19:47:50.756Z,82.50
2023-06-29T19:50:17.871Z,83.60
2023-06-29T19:52:44.791Z,83.10
2023-06-29T19:55:11.745Z,83.10
2023-06-29T19:57:38.914Z,83.30
2023-06-29T20:00:06.515Z,82.70
2023-06-29T20:02:33.862Z,83.60
2023-06-29T20:05:00.744Z,83.50
2023-06-29T20:07:27.679Z,83.50
2023-06-29T20:09:54.635Z,83.20
2023-06-29T20:12:21.442Z,83.90
2023-06-29T20:14:48.352Z,84.60
2023-06-29T20:17:15.416Z,85.00
2023-06-29T20:19:42.314Z,85.60
2023-06-29T20:22:09.182Z,84.80
2023-06-29T20:24:36.015Z,84.60
2023-06-29T20:27:02.807Z,85.10
2023-06-29T20:29:30.280Z,85.30
2023-06-29T20:31:57.192Z,85.60
2023-06-29T20:34:24.038Z,87.20
2023-06-29T20:36:53.762Z,85.80
2023-06-29T20:39:23.492Z,87.00
2023-06-29T20:41:51.119Z,87.70
2023-06-29T20:44:19.425Z,86.90
2023-06-29T20:46:50.563Z,86.20
2023-06-29T20:49:19.419Z,86.20
2023-06-29T20:51:49.216Z,86.70
2023-06-29T20:54:16.460Z,86.00
2023-06-29T20:56:43.756Z,87.10
2023-06-29T20:59:10.789Z,86.30
2023-06-29T21:01:37.773Z,85.50
2023-06-29T21:04:04.845Z,86.70
2023-06-29T21:06:31.901Z,85.90
2023-06-29T21:08:58.892Z,85.30
2023-06-29T21:11:26.978Z,85.60
2023-06-29T21:13:53.831Z,87.00
2023-06-29T21:16:21.002Z,86.20
2023-06-29T21:18:48.059Z,85.90
2023-06-29T21:21:17.804Z,86.90
2023-06-29T21:23:44.827Z,85.50
2023-06-29T21:26:11.658Z,85.50
2023-06-29T21:28:41.098Z,87.40
2023-06-29T21:31:08.241Z,86.30
2023-06-29T21:33:35.207Z,86.30
2023-06-29T21:36:02.227Z,85.90
2023-06-29T21:38:32.163Z,86.80
2023-06-29T21:40:59.683Z,86.30
2023-06-29T21:43:26.518Z,86.90
2023-06-29T21:45:53.364Z,87.60
2023-06-29T21:48:20.177Z,86.20
2023-06-29T21:50:47.076Z,85.10
2023-06-29T21:53:14.549Z,85.70
2023-06-29T21:55:42.850Z,87.20
2023-06-29T21:58:10.080Z,86.30
2023-06-29T22:00:37.023Z,85.80
2023-06-29T22:03:04.178Z,85.40
2023-06-29T22:05:31.350Z,86.50
2023-06-29T22:07:58.327Z,85.50
2023-06-29T22:10:26.365Z,86.20
2023-06-29T22:12:53.247Z,87.00
2023-06-29T22:15:20.280Z,86.40
2023-06-29T22:17:50.342Z,86.30
2023-06-29T22:20:18.969Z,85.90
2023-06-29T22:22:47.203Z,87.50
2023-06-29T22:25:14.089Z,87.50
2023-06-29T22:27:41.160Z,87.20
2023-06-29T22:30:08.405Z,86.00
2023-06-29T22:32:35.404Z,87.00
2023-06-29T22:35:02.660Z,87.20
2023-06-29T22:37:29.683Z,85.40
2023-06-29T22:39:56.790Z,86.10
2023-06-29T22:42:23.705Z,86.60
2023-06-29T22:44:51.435Z,87.30
2023-06-29T22:47:18.325Z,86.80
2023-06-29T22:49:45.284Z,85.90
2023-06-29T22:52:12.277Z,85.80
2023-06-29T22:54:39.114Z,87.20
2023-06-29T22:57:06.198Z,86.60
2023-06-29T22:59:33.245Z,86.40
2023-06-29T23:02:00.311Z,86.40
2023-06-29T23:04:27.255Z,86.50
2023-06-29T23:06:54.874Z,86.70
2023-06-29T23:09:22.230Z,87.00
2023-06-29T23:11:50.662Z,86.70
2023-06-29T23:14:19.054Z,86.40
2023-06-29T23:16:47.604Z,87.90
2023-06-29T23:19:15.022Z,87.00
2023-06-29T23:21:41.992Z,87.30
2023-06-29T23:24:14.507Z,88.20
2023-06-29T23:26:42.171Z,87.30
2023-06-29T23:29:09.052Z,87.20
2023-06-29T23:31:36.596Z,87.80
2023-06-29T23:34:04.455Z,87.40
2023-06-29T23:36:31.849Z,87.10
2023-06-29T23:38:59.758Z,88.20
2023-06-29T23:41:30.609Z,87.40
2023-06-29T23:44:06.279Z,87.10
2023-06-29T23:46:46.763Z,87.70
2023-06-29T23:49:15.106Z,88.10
2023-06-29T23:51:43.211Z,88.20
2023-06-29T23:54:13.515Z,88.80
2023-06-29T23:56:41.133Z,88.00
2023-06-29T23:59:08.935Z,88.40
